Verner, Canada
Current Conditions -  °F | °C
As of 5:00 AM on Saturday 22 Nov 2014 (Local Time) from CYYB Reporting Station
Overcast Overcast  
Wind Chill: 13°   Ceiling: 1400
Heat Index: 27°   Visibility: 9mi
Dew Point: 25°   Wind: 20mph
Humidity: 93%   Direction: 220°SW
Pressure: 29.94"   Gusts: 28mph
Location:  46.4°N, 80.12°W
Report Text: CYYB 221000Z AUTO 22017G24KT 9SM OVC014 M03/M04 A2994 RMK SLP162
Loading
Personal Weather Stations






























Interactive Weather Map New forecast layout! Learn more

10-Day Weather Forecast

Advertisements
Track Severe Weather on mobile